Wolford, North Dakota
Current Conditions -  °F | °C
As of 7:35 AM on Friday 28 Nov 2014 (Local Time) from KRUG Reporting Station
Light Snow Light Snow  
Wind Chill: -7°   Ceiling: 2200
Heat Index:   Visibility: 8mi
Dew Point:   Wind: 13mph
Humidity: 85%   Direction: 100°E
Pressure: 29.86"   Gusts: NA
Location:  48.5°N, 99.7°W
Report Text: KRUG 281335Z AUTO 10011KT 8SM -SN FEW003 SCT009 OVC022 M13/M15 A2986 RMK AO2
Loading
Personal Weather Stations






























Interactive Weather Map New forecast layout! Learn more

10-Day Weather Forecast

Advertisements
Track Severe Weather on mobile